Aviation Digital Data Service (ADDS)

Output produced by METARs form (1215 UTC 25 January 2015)
found at http://aviationweather.gov/adds/metars/
 
KALB 251157Z 2512/2612 28015G25KT P6SM VCSH SCT025 OVC040 
     TEMPO 2512/2513 28020G35KT 3SM -SHSN BR BKN025 OVC040 
     FM251300 30017G27KT P6SM BKN050 
     FM251500 32012G21KT P6SM SCT050 
     FM252300 33008KT P6SM BKN200 
     FM260700 36004KT P6SM BKN120 OVC200